Time;durP1;ratioP1;P1;durP2;ratioP2;P2;SDS_P1;SDS_P2;PMS_P1;PMS_P2;Temp;Humidity;BMP_temperature;BMP_pressure;BME280_temperature;BME280_humidity;BME280_pressure;Samples;Min_cycle;Max_cycle;Signal;HPM_P1;HPM_P2
2022/04/21 00:01:22;;;;;;;4.8;3.2;;;;;;;4.98;70.20703;931.0659;;;;
2022/04/21 00:03:47;;;;;;;4.3;3.3;;;;;;;5.11;70.03613;931.1213;;;;
2022/04/21 00:06:13;;;;;;;4.4;3.3;;;;;;;5.12;69.88086;931.195;;;;
2022/04/21 00:08:42;;;;;;;4.9;3.7;;;;;;;5.01;69.84082;931.1212;;;;
2022/04/21 00:11:11;;;;;;;5.7;3.2;;;;;;;4.87;70.3125;931.052;;;;
2022/04/21 00:13:37;;;;;;;4.4;3.4;;;;;;;4.88;70.28027;931.0829;;;;
2022/04/21 00:16:02;;;;;;;4;3.4;;;;;;;4.56;71.3877;931.0739;;;;
2022/04/21 00:18:29;;;;;;;4.9;3.6;;;;;;;4.37;72.35645;930.9931;;;;
2022/04/21 00:20:54;;;;;;;4.6;3.3;;;;;;;4.38;72.41602;931.0352;;;;
2022/04/21 00:23:31;;;;;;;3.8;3.4;;;;;;;4.35;72.29883;931.0519;;;;
2022/04/21 00:25:49;;;;;;;4.4;3.6;;;;;;;4.31;72.39063;931.0115;;;;
2022/04/21 00:28:17;;;;;;;4.1;3.6;;;;;;;4.18;72.87695;931.0181;;;;
2022/04/21 00:30:42;;;;;;;4.4;3.3;;;;;;;4.25;72.6416;930.9561;;;;
2022/04/21 00:33:09;;;;;;;6.9;3.6;;;;;;;4.23;72.79688;930.9084;;;;
2022/04/21 00:35:34;;;;;;;4.7;3.4;;;;;;;4.2;73.00391;930.8262;;;;
2022/04/21 00:38:00;;;;;;;3.8;3.4;;;;;;;4.26;72.78809;930.9239;;;;
2022/04/21 00:40:26;;;;;;;4.4;3.5;;;;;;;4.23;72.71777;930.9384;;;;
2022/04/21 00:42:55;;;;;;;5;3.5;;;;;;;4.26;72.62109;930.9319;;;;
2022/04/21 00:45:20;;;;;;;4.7;3.5;;;;;;;4.35;72.38574;930.9202;;;;
2022/04/21 00:47:50;;;;;;;4;3.4;;;;;;;4.19;72.97949;930.8127;;;;
2022/04/21 00:50:19;;;;;;;3.7;3.1;;;;;;;4.1;73.28906;930.7713;;;;
2022/04/21 00:52:44;;;;;;;4.7;3.6;;;;;;;3.83;74.46777;930.8053;;;;
2022/04/21 00:55:14;;;;;;;4.7;3.3;;;;;;;3.72;75.08008;930.8491;;;;
2022/04/21 00:57:43;;;;;;;4.7;3.4;;;;;;;3.69;75.01758;930.8264;;;;
2022/04/21 01:00:08;;;;;;;4.4;3.1;;;;;;;3.79;74.91211;930.8563;;;;
2022/04/21 01:02:49;;;;;;;4.5;3.7;;;;;;;3.69;74.99414;930.8264;;;;
2022/04/21 01:05:08;;;;;;;4.4;3.7;;;;;;;3.54;75.58691;930.7676;;;;
2022/04/21 01:07:38;;;;;;;4.9;3.7;;;;;;;3.41;76.49512;930.748;;;;
2022/04/21 01:10:03;;;;;;;4.8;3.6;;;;;;;3.51;76.5127;930.7637;;;;
2022/04/21 01:12:34;;;;;;;3.3;3;;;;;;;3.65;75.70703;930.7206;;;;
2022/04/21 01:15:01;;;;;;;4.1;3.1;;;;;;;3.72;75.28223;930.7452;;;;
2022/04/21 01:17:26;;;;;;;4.7;3.2;;;;;;;3.78;74.99902;930.7332;;;;
2022/04/21 01:19:54;;;;;;;4.5;3.5;;;;;;;3.8;74.66504;930.7004;;;;
2022/04/21 01:22:19;;;;;;;5.1;3.1;;;;;;;3.76;74.80469;930.6816;;;;
2022/04/21 01:24:48;;;;;;;3.8;3.4;;;;;;;3.8;74.57715;930.7281;;;;
2022/04/21 01:27:13;;;;;;;5;3.6;;;;;;;3.93;74.04785;930.6864;;;;
2022/04/21 01:29:42;;;;;;;4.5;3.3;;;;;;;3.93;74.01465;930.6635;;;;
2022/04/21 01:32:06;;;;;;;3.9;3;;;;;;;3.91;73.74121;930.6339;;;;
2022/04/21 01:34:31;;;;;;;5.4;3.7;;;;;;;3.79;74.05859;930.5681;;;;
2022/04/21 01:41:46;;;;;;;4.4;3.5;;;;;;;3.76;74.05176;930.5728;;;;
2022/04/21 01:44:12;;;;;;;5.2;3.9;;;;;;;3.76;74.08594;930.5271;;;;
2022/04/21 01:46:40;;;;;;;5.6;3.8;;;;;;;3.75;74.06348;930.5687;;;;
2022/04/21 01:49:05;;;;;;;3.9;3.5;;;;;;;3.67;74.30566;930.4543;;;;
2022/04/21 01:51:34;;;;;;;4.7;3.8;;;;;;;3.7;74.37793;930.4501;;;;
2022/04/21 01:54:03;;;;;;;4.5;3.5;;;;;;;3.74;74.13867;930.4174;;;;
2022/04/21 01:56:29;;;;;;;4.4;3.6;;;;;;;3.67;74.29492;930.4874;;;;
2022/04/21 01:58:54;;;;;;;4.9;3.6;;;;;;;3.65;74.42676;930.3697;;;;
2022/04/21 02:01:19;;;;;;;4.6;3.8;;;;;;;3.63;74.63477;930.4409;;;;
2022/04/21 02:03:48;;;;;;;5.1;3.8;;;;;;;3.59;74.5166;930.4742;;;;
2022/04/21 02:06:13;;;;;;;4.7;3.8;;;;;;;3.49;75.09473;930.4626;;;;
2022/04/21 02:08:41;;;;;;;4.5;3.6;;;;;;;3.52;74.83105;930.4288;;;;
2022/04/21 02:11:07;;;;;;;4.1;3.7;;;;;;;3.35;75.48438;930.3922;;;;
2022/04/21 02:13:33;;;;;;;5.8;4;;;;;;;3.3;76.00391;930.3981;;;;
2022/04/21 02:15:58;;;;;;;5.1;3.8;;;;;;;3.29;76.01172;930.3499;;;;
2022/04/21 02:18:28;;;;;;;4.7;3.9;;;;;;;3.2;76.45801;930.3395;;;;
2022/04/21 02:20:57;;;;;;;6.5;3.8;;;;;;;3.18;76.51074;930.3125;;;;
2022/04/21 02:23:23;;;;;;;5.6;3.6;;;;;;;3.26;76.29883;930.3915;;;;
2022/04/21 02:25:50;;;;;;;6.2;3.9;;;;;;;3.31;75.95117;930.3622;;;;
2022/04/21 02:28:15;;;;;;;5.9;3.9;;;;;;;3.32;76.03125;930.3727;;;;
2022/04/21 02:30:43;;;;;;;4.5;3.6;;;;;;;3.16;76.5293;930.3599;;;;
2022/04/21 02:33:08;;;;;;;4.9;3.7;;;;;;;3.16;76.47363;930.3577;;;;
2022/04/21 02:35:39;;;;;;;5;4.1;;;;;;;3.01;77.16211;930.3585;;;;
2022/04/21 02:51:59;;;;;;;5;3.7;;;;;;;3.06;77.46387;930.3251;;;;
2022/04/21 02:59:15;;;;;;;5.2;4.1;;;;;;;3.12;77.03809;930.2623;;;;
2022/04/21 03:01:40;;;;;;;5.1;4.4;;;;;;;2.97;77.89648;930.2874;;;;
2022/04/21 03:04:10;;;;;;;4.6;3.6;;;;;;;3.05;77.59668;930.3141;;;;
2022/04/21 03:06:35;;;;;;;4.6;3.8;;;;;;;3.02;77.63672;930.3141;;;;
2022/04/21 03:09:02;;;;;;;5.2;4.2;;;;;;;2.95;77.92676;930.2783;;;;
2022/04/21 03:11:27;;;;;;;5;4.5;;;;;;;2.83;78.2959;930.2256;;;;
2022/04/21 03:13:55;;;;;;;5.4;4.2;;;;;;;2.61;79.60254;930.2536;;;;
2022/04/21 03:16:20;;;;;;;5.1;4.2;;;;;;;2.84;78.92676;930.2731;;;;
2022/04/21 03:18:49;;;;;;;5.9;4.9;;;;;;;2.98;78.21387;930.2805;;;;
2022/04/21 03:26:17;;;;;;;5;4;;;;;;;3.24;76.9707;930.2347;;;;
2022/04/21 03:28:35;;;;;;;7.4;4.3;;;;;;;3.26;76.60254;930.2122;;;;
2022/04/21 03:31:03;;;;;;;9.9;4.8;;;;;;;3.19;76.44434;930.2283;;;;
2022/04/21 03:33:28;;;;;;;5.5;4.3;;;;;;;3.27;76.32422;930.1945;;;;
2022/04/21 03:35:56;;;;;;;4.7;4.2;;;;;;;3.26;76.16602;930.1619;;;;
2022/04/21 03:38:22;;;;;;;5.2;4.3;;;;;;;3.32;76.13086;930.1987;;;;
2022/04/21 03:40:49;;;;;;;5.1;4.2;;;;;;;3.25;76.31934;930.0625;;;;
2022/04/21 03:43:14;;;;;;;5.3;4.4;;;;;;;3.25;76.14063;930.0948;;;;
2022/04/21 03:45:42;;;;;;;6.9;4.9;;;;;;;3.22;76.22559;930.0722;;;;
2022/04/21 03:48:07;;;;;;;12.1;7.2;;;;;;;3.12;76.7793;930.0694;;;;
2022/04/21 03:50:38;;;;;;;9;5.7;;;;;;;3.07;77.28613;930.1038;;;;
2022/04/21 03:53:07;;;;;;;7.3;5.2;;;;;;;2.94;77.58789;930.1144;;;;
2022/04/21 03:55:32;;;;;;;6.4;4.9;;;;;;;3.01;77.30957;930.0598;;;;
2022/04/21 03:58:02;;;;;;;7.9;5.3;;;;;;;3.06;77.01465;930.0916;;;;
2022/04/21 04:02:36;;;;;;;6.2;4.6;;;;;;;2.81;77.44043;930.0663;;;;
2022/04/21 04:05:06;;;;;;;18.5;8.2;;;;;;;2.78;77.45801;930.103;;;;
2022/04/21 04:12:30;;;;;;;7.5;4.8;;;;;;;2.45;79.38184;930.0614;;;;
2022/04/21 04:15:01;;;;;;;12.4;4.9;;;;;;;2.4;79.89844;930.1509;;;;
2022/04/21 04:17:35;;;;;;;7.7;5.2;;;;;;;2.28;80.59277;930.0489;;;;
2022/04/21 04:20:05;;;;;;;6.1;4.5;;;;;;;2.26;80.64551;930.0303;;;;
2022/04/21 04:22:42;;;;;;;6.9;4.7;;;;;;;2.27;80.79297;929.9573;;;;
2022/04/21 04:25:19;;;;;;;5.3;4.5;;;;;;;2.21;81.00586;929.9559;;;;
2022/04/21 04:27:51;;;;;;;5.9;4.9;;;;;;;2.19;81.22461;929.9958;;;;
2022/04/21 04:30:21;;;;;;;7.3;4.8;;;;;;;2.32;81.12793;929.9683;;;;
2022/04/21 04:32:47;;;;;;;9;5.3;;;;;;;2.39;80.87109;929.9558;;;;
2022/04/21 04:35:21;;;;;;;9.2;5.6;;;;;;;2.28;81.01855;929.9309;;;;
2022/04/21 04:37:51;;;;;;;7.3;4.9;;;;;;;2.29;81.44531;929.8441;;;;
2022/04/21 04:40:19;;;;;;;6.1;5;;;;;;;2.42;80.98828;929.894;;;;
2022/04/21 04:42:46;;;;;;;7.4;5;;;;;;;2.62;79.96289;929.949;;;;
2022/04/21 04:47:47;;;;;;;10.3;5.6;;;;;;;2.74;79.45801;929.9514;;;;
2022/04/21 04:50:15;;;;;;;7.7;4.6;;;;;;;2.72;79.47754;929.9398;;;;
2022/04/21 04:52:47;;;;;;;7.2;4.7;;;;;;;2.7;79.60645;929.9556;;;;
2022/04/21 04:55:18;;;;;;;7.9;4.5;;;;;;;2.93;78.53809;929.9254;;;;
2022/04/21 04:57:49;;;;;;;7.4;4.9;;;;;;;2.94;78.14941;929.9155;;;;
2022/04/21 05:00:12;;;;;;;8.3;5;;;;;;;3.06;77.40918;929.8708;;;;
2022/04/21 05:02:37;;;;;;;8.3;4.8;;;;;;;3.16;77.05566;929.8769;;;;
2022/04/21 05:05:02;;;;;;;7.6;4.7;;;;;;;3.2;76.52539;929.7938;;;;
2022/04/21 05:07:33;;;;;;;6.8;4.8;;;;;;;3.23;76.36133;929.8144;;;;
2022/04/21 05:09:58;;;;;;;8.3;4.5;;;;;;;3.29;76.28418;929.8189;;;;
2022/04/21 05:12:28;;;;;;;6.6;4.7;;;;;;;3.29;76.66504;929.8543;;;;
2022/04/21 05:14:53;;;;;;;10.4;5;;;;;;;3.38;76.16309;929.8594;;;;
2022/04/21 05:17:19;;;;;;;7.4;4.5;;;;;;;3.43;76.03809;929.838;;;;
2022/04/21 05:19:50;;;;;;;8.7;4.6;;;;;;;3.52;76.29004;929.8084;;;;
2022/04/21 05:22:14;;;;;;;8.6;4.4;;;;;;;3.63;75.42188;929.801;;;;
2022/04/21 05:24:44;;;;;;;12.1;5;;;;;;;3.39;76.18652;929.7753;;;;
2022/04/21 05:27:09;;;;;;;17.2;6.4;;;;;;;3.29;76.83105;929.7283;;;;
2022/04/21 05:32:04;;;;;;;8.1;5;;;;;;;3.88;77.31055;929.6458;;;;
2022/04/21 05:34:33;;;;;;;14.4;4.5;;;;;;;5.53;71.42578;929.7269;;;;
2022/04/21 05:36:58;;;;;;;13.9;5.1;;;;;;;7.16;64.36816;929.6608;;;;
2022/04/21 05:39:27;;;;;;;7.4;4.3;;;;;;;8.57;58.875;929.5969;;;;
2022/04/21 05:41:56;;;;;;;8;4.2;;;;;;;9.57;55.72949;929.6167;;;;
2022/04/21 05:44:23;;;;;;;7.5;3.6;;;;;;;10.85;52.53613;929.5272;;;;
2022/04/21 05:46:48;;;;;;;7.7;4.3;;;;;;;11.52;50.04395;929.5655;;;;
2022/04/21 05:49:18;;;;;;;8.5;5;;;;;;;11.69;48.52832;929.5634;;;;
2022/04/21 05:51:46;;;;;;;6.8;4.4;;;;;;;12.53;46.35059;929.5184;;;;
2022/04/21 05:54:10;;;;;;;8.6;4.1;;;;;;;13.46;44.92188;929.5449;;;;
2022/04/21 05:56:39;;;;;;;5.1;3.3;;;;;;;12.33;46.42188;929.4871;;;;
2022/04/21 05:59:04;;;;;;;5.6;3.3;;;;;;;12.97;45.56055;929.4014;;;;
2022/04/21 06:01:35;;;;;;;8;3.5;;;;;;;13.92;43.07031;929.4328;;;;
2022/04/21 06:04:03;;;;;;;6;3.7;;;;;;;14.47;42.72168;929.399;;;;
2022/04/21 06:06:28;;;;;;;7.7;3.7;;;;;;;14.65;41.56348;929.3803;;;;
2022/04/21 06:08:57;;;;;;;6;3.8;;;;;;;13.54;43.125;929.4355;;;;
2022/04/21 06:11:27;;;;;;;7;4;;;;;;;13.9;42.78125;929.3939;;;;
2022/04/21 06:13:56;;;;;;;6.7;4.1;;;;;;;15.6;40.03613;929.3391;;;;
2022/04/21 06:16:24;;;;;;;7.5;3.9;;;;;;;14.58;42.00586;929.3486;;;;
2022/04/21 06:18:51;;;;;;;6.1;3.4;;;;;;;15.89;40.47949;929.3236;;;;
2022/04/21 06:21:16;;;;;;;4.1;3.3;;;;;;;15.56;39.09766;929.2963;;;;
2022/04/21 06:23:44;;;;;;;6;3.2;;;;;;;16.9;38.33691;929.2567;;;;
2022/04/21 06:27:31;;;;;;;4.6;3.2;;;;;;;17.61;36.94824;929.317;;;;
2022/04/21 06:29:59;;;;;;;5;3.5;;;;;;;17.9;35.10254;929.2877;;;;
2022/04/21 06:32:25;;;;;;;3.6;3.2;;;;;;;18.01;36.54102;929.3031;;;;
2022/04/21 06:34:52;;;;;;;5.2;2.9;;;;;;;17.39;35.41016;929.2385;;;;
2022/04/21 06:37:17;;;;;;;4.3;3.2;;;;;;;14.97;40.07129;929.277;;;;
2022/04/21 06:39:46;;;;;;;3.9;3.2;;;;;;;15.84;39.66504;929.2976;;;;
2022/04/21 06:42:11;;;;;;;6.8;4.7;;;;;;;15.34;41.51367;929.2547;;;;
2022/04/21 06:49:33;;;;;;;4;3.2;;;;;;;15.06;40.74902;929.1443;;;;
2022/04/21 06:52:02;;;;;;;5.4;3.7;;;;;;;14.86;42.4248;929.1333;;;;
2022/04/21 06:54:27;;;;;;;4;3.4;;;;;;;15.03;42.29199;929.1147;;;;
2022/04/21 06:56:55;;;;;;;4.7;3.3;;;;;;;15.66;41.34668;929.0505;;;;
2022/04/21 06:59:20;;;;;;;3.9;3.5;;;;;;;15.41;41.41602;929.123;;;;
2022/04/21 07:01:52;;;;;;;4.2;3.5;;;;;;;13.53;43.52637;929.1558;;;;
2022/04/21 07:04:22;;;;;;;5.1;3.3;;;;;;;12.75;46.28223;929.1454;;;;
2022/04/21 07:06:51;;;;;;;5.7;3.5;;;;;;;12.71;46.32422;929.1922;;;;
2022/04/21 07:09:16;;;;;;;8.1;4.2;;;;;;;12.69;47.86035;929.1997;;;;
2022/04/21 07:11:47;;;;;;;5;4;;;;;;;11.47;50.50684;929.1928;;;;
2022/04/21 07:14:12;;;;;;;6.9;4.1;;;;;;;11.5;51.63086;929.1878;;;;
2022/04/21 07:16:37;;;;;;;5.7;4.1;;;;;;;11.76;50.4707;929.2216;;;;
2022/04/21 07:19:03;;;;;;;6.6;4.3;;;;;;;12.23;50.16992;929.1873;;;;
2022/04/21 07:21:28;;;;;;;5.6;4.2;;;;;;;12.14;48.39551;929.1992;;;;
2022/04/21 07:23:56;;;;;;;5.7;3.9;;;;;;;12.85;47.49902;929.1922;;;;
2022/04/21 07:26:21;;;;;;;5.7;4.2;;;;;;;13.91;46.00293;929.1578;;;;
2022/04/21 07:28:48;;;;;;;5.2;3.7;;;;;;;13.78;43.48145;929.1606;;;;
2022/04/21 07:31:13;;;;;;;4.5;3.8;;;;;;;14.85;43.10449;929.1224;;;;
2022/04/21 07:33:42;;;;;;;5.1;3.7;;;;;;;15.32;41.2002;929.1044;;;;
2022/04/21 07:36:07;;;;;;;4.9;3.7;;;;;;;15.51;41.56445;929.1106;;;;
2022/04/21 07:38:35;;;;;;;5.1;3.9;;;;;;;16.81;39.08105;929.1;;;;
2022/04/21 07:41:00;;;;;;;5.2;4;;;;;;;17.21;38.18945;928.9782;;;;
2022/04/21 07:43:27;;;;;;;4.4;3.7;;;;;;;17;40.30371;929.0527;;;;
2022/04/21 07:45:52;;;;;;;4.3;3.4;;;;;;;18.96;36.36426;928.9689;;;;
2022/04/21 07:48:19;;;;;;;5;3.7;;;;;;;20.55;33.94727;928.97;;;;
2022/04/21 07:50:44;;;;;;;4.1;3;;;;;;;22.06;31.42578;928.9278;;;;
2022/04/21 07:53:15;;;;;;;5.1;3.5;;;;;;;21.39;33.30957;928.9116;;;;
2022/04/21 07:55:35;;;;;;;4.5;3.9;;;;;;;22.3;30.85645;928.8954;;;;
2022/04/21 07:58:03;;;;;;;6.5;3.4;;;;;;;21.34;31.84375;928.9551;;;;
2022/04/21 08:00:28;;;;;;;5.3;3.5;;;;;;;22.29;29.77734;928.8719;;;;
2022/04/21 08:02:57;;;;;;;6.6;3.1;;;;;;;22.6;31.01855;928.8404;;;;
2022/04/21 08:05:27;;;;;;;4;3.1;;;;;;;22.31;29.4502;928.8998;;;;
2022/04/21 08:07:52;;;;;;;3.7;2.9;;;;;;;20.94;32.3877;928.8602;;;;
2022/04/21 08:10:23;;;;;;;3.3;2.9;;;;;;;21.4;30.44336;928.9011;;;;
2022/04/21 08:12:47;;;;;;;3.7;3.1;;;;;;;20.89;33.56348;928.9372;;;;
2022/04/21 08:15:16;;;;;;;4.6;3.1;;;;;;;21.59;30.29199;928.9487;;;;
2022/04/21 08:17:48;;;;;;;4.1;2.8;;;;;;;22.93;28.45801;928.8209;;;;
2022/04/21 08:20:18;;;;;;;4.3;3.2;;;;;;;21.85;30.9082;928.8244;;;;
2022/04/21 08:22:47;;;;;;;5.1;3.2;;;;;;;21.57;30.99316;928.8837;;;;
2022/04/21 08:32:43;;;;;;;6.2;3.1;;;;;;;24.62;26.2666;928.752;;;;
2022/04/21 08:35:00;;;;;;;3.4;3;;;;;;;23.81;27.7373;928.6082;;;;
2022/04/21 08:37:25;;;;;;;4.5;3.3;;;;;;;23.58;27.59277;928.6763;;;;
2022/04/21 08:39:53;;;;;;;4.7;3.3;;;;;;;22.82;28.46191;928.6278;;;;
2022/04/21 08:42:18;;;;;;;4.7;3.6;;;;;;;21.27;30.67969;928.6718;;;;
2022/04/21 08:44:45;;;;;;;6.3;3.5;;;;;;;21.07;31.9873;928.6629;;;;
2022/04/21 08:47:11;;;;;;;4.5;3.5;;;;;;;22.12;29.07422;928.5725;;;;
2022/04/21 08:49:41;;;;;;;4.3;3.9;;;;;;;21.85;29.61816;928.5767;;;;
2022/04/21 08:52:06;;;;;;;4.7;3.7;;;;;;;21.1;30.77344;928.6182;;;;
2022/04/21 08:54:33;;;;;;;3.8;3.5;;;;;;;22.33;29.08789;928.512;;;;
2022/04/21 08:56:59;;;;;;;5.3;3.7;;;;;;;22.49;28.6875;928.4911;;;;
2022/04/21 08:59:30;;;;;;;4;3.6;;;;;;;22.44;28.78906;928.45;;;;
2022/04/21 09:02:03;;;;;;;3.9;3.5;;;;;;;21.84;29.8877;928.4313;;;;
2022/04/21 09:04:32;;;;;;;5.4;3.7;;;;;;;21.69;30.22852;928.4033;;;;
2022/04/21 09:06:58;;;;;;;4.1;3.7;;;;;;;22.56;29.53613;928.2822;;;;
2022/04/21 09:09:23;;;;;;;5.6;3.9;;;;;;;22.55;29.88867;928.3181;;;;
2022/04/21 09:11:52;;;;;;;4.4;3.5;;;;;;;22.06;30.41797;928.3265;;;;
2022/04/21 09:14:17;;;;;;;3.8;3.5;;;;;;;22.25;30.16113;928.34;;;;
2022/04/21 09:16:48;;;;;;;5.6;4;;;;;;;21.78;30.87891;928.3578;;;;
2022/04/21 09:19:20;;;;;;;4.2;3.7;;;;;;;21.66;30.2627;928.2809;;;;
2022/04/21 09:21:50;;;;;;;5.4;3.5;;;;;;;21.24;32.78418;928.2551;;;;
2022/04/21 09:24:21;;;;;;;3.8;3.4;;;;;;;21.53;31.64648;928.2026;;;;
2022/04/21 09:26:54;;;;;;;4.8;3.9;;;;;;;20.95;31.53516;928.2455;;;;
2022/04/21 09:29:28;;;;;;;4.8;4;;;;;;;20.17;32.96094;928.2322;;;;
2022/04/21 09:31:56;;;;;;;4.6;4.1;;;;;;;19.57;33.81445;928.1775;;;;
2022/04/21 09:34:28;;;;;;;4.5;4.1;;;;;;;18.53;36.51367;928.1961;;;;
2022/04/21 09:36:59;;;;;;;4.8;4.1;;;;;;;18.91;36.5918;928.1788;;;;
2022/04/21 09:39:31;;;;;;;4.6;4;;;;;;;19.19;35.99805;928.2122;;;;
2022/04/21 09:41:58;;;;;;;5.3;4.4;;;;;;;18.82;38.2832;928.1924;;;;
2022/04/21 09:46:49;;;;;;;8.7;4.7;;;;;;;19.23;35.23145;928.0134;;;;
2022/04/21 09:49:15;;;;;;;5.1;4;;;;;;;19.1;35.81641;928.0012;;;;
2022/04/21 09:51:43;;;;;;;5.1;4.4;;;;;;;19.05;36.5918;927.938;;;;
2022/04/21 09:54:10;;;;;;;6.7;4.5;;;;;;;18.97;35.68848;927.936;;;;
2022/04/21 09:56:39;;;;;;;6.6;4.5;;;;;;;19.29;35.64551;927.9423;;;;
2022/04/21 09:59:07;;;;;;;4.8;4.3;;;;;;;19.16;35.13379;927.8631;;;;
2022/04/21 10:01:36;;;;;;;4.9;4.3;;;;;;;19.46;35.0293;927.8638;;;;
2022/04/21 10:03:59;;;;;;;6;4.2;;;;;;;18.79;37.37402;927.7311;;;;
2022/04/21 10:06:36;;;;;;;6.4;4.5;;;;;;;19.41;35.10742;927.7919;;;;
2022/04/21 10:09:09;;;;;;;5.4;4.7;;;;;;;19.63;35.67188;927.7481;;;;
2022/04/21 10:11:43;;;;;;;5.3;4.7;;;;;;;19.34;35.55566;927.6417;;;;
2022/04/21 10:14:11;;;;;;;5.9;5;;;;;;;19.23;36.67676;927.6984;;;;
2022/04/21 10:16:42;;;;;;;4.9;4.3;;;;;;;19.17;36.19434;927.6926;;;;
2022/04/21 10:19:10;;;;;;;5.5;4.3;;;;;;;19.28;36.98438;927.5769;;;;
2022/04/21 10:21:36;;;;;;;4.9;4.4;;;;;;;19.19;36.66211;927.5455;;;;
2022/04/21 10:24:05;;;;;;;5;4.5;;;;;;;18.58;37.22754;927.4761;;;;
2022/04/21 10:26:30;;;;;;;5.5;4.8;;;;;;;17.93;38.99512;927.3956;;;;
2022/04/21 10:28:58;;;;;;;5.8;4.6;;;;;;;18.5;37.96582;927.5272;;;;
2022/04/21 10:31:23;;;;;;;5.5;4.4;;;;;;;18.77;37.0918;927.3992;;;;
2022/04/21 10:33:50;;;;;;;5.6;4.4;;;;;;;19.41;35.53711;927.4725;;;;
2022/04/21 10:36:15;;;;;;;7.4;4.8;;;;;;;19.73;35.52832;927.37;;;;
2022/04/21 10:38:43;;;;;;;4.9;4.2;;;;;;;19.32;36.36914;927.3784;;;;
2022/04/21 10:41:10;;;;;;;5.2;4.7;;;;;;;19.84;34.2666;927.3063;;;;
2022/04/21 10:43:34;;;;;;;7.5;4.8;;;;;;;19.36;35.68555;927.3647;;;;
2022/04/21 10:46:00;;;;;;;5.7;4.5;;;;;;;19.46;36.12402;927.3615;;;;
2022/04/21 10:48:33;;;;;;;4.8;4.3;;;;;;;19.76;35.92773;927.3063;;;;
2022/04/21 10:50:59;;;;;;;6.6;4.7;;;;;;;20.02;34.61914;927.2349;;;;
2022/04/21 10:58:15;;;;;;;6.7;4.7;;;;;;;19.42;36.82031;927.1838;;;;
2022/04/21 11:00:40;;;;;;;5;4.5;;;;;;;19.38;36.33887;927.095;;;;
2022/04/21 11:03:10;;;;;;;5.8;4.7;;;;;;;19.74;35.00488;927.0995;;;;
2022/04/21 11:05:35;;;;;;;43.8;7.2;;;;;;;20.47;33.79004;926.9702;;;;
2022/04/21 11:08:00;;;;;;;7.3;4.6;;;;;;;20.29;33.97461;926.9821;;;;
2022/04/21 11:10:26;;;;;;;8.7;4.7;;;;;;;20.69;32.84766;926.9549;;;;
2022/04/21 11:12:51;;;;;;;5.3;4.5;;;;;;;20.45;33.93945;926.8977;;;;
2022/04/21 11:15:18;;;;;;;6.6;4.7;;;;;;;19.58;37.40527;926.9609;;;;
2022/04/21 11:17:46;;;;;;;7.6;4.9;;;;;;;19.43;36.22656;926.8784;;;;
2022/04/21 11:20:19;;;;;;;5.7;4.5;;;;;;;19.56;35.99316;926.8488;;;;
2022/04/21 11:22:44;;;;;;;4.7;4.2;;;;;;;19.82;35.54785;926.8441;;;;
2022/04/21 11:25:15;;;;;;;6.5;4.7;;;;;;;20.01;34.93262;926.7462;;;;
2022/04/21 11:27:45;;;;;;;5;4.3;;;;;;;20.83;33.30273;926.8384;;;;
2022/04/21 11:30:15;;;;;;;4.9;4.3;;;;;;;21.08;33.70801;926.9301;;;;
2022/04/21 11:32:47;;;;;;;6;4.3;;;;;;;20.83;34.30762;926.8967;;;;
2022/04/21 11:35:16;;;;;;;5.4;4;;;;;;;21.49;32.64941;926.7623;;;;
2022/04/21 11:37:43;;;;;;;5.2;4.1;;;;;;;21.62;31.89844;926.6006;;;;
2022/04/21 11:40:15;;;;;;;5.9;4.7;;;;;;;20.37;33.98047;926.8016;;;;
2022/04/21 11:42:46;;;;;;;6.4;4.3;;;;;;;20.39;34.57813;926.8378;;;;
2022/04/21 11:45:18;;;;;;;5.2;4;;;;;;;21.69;32.05566;926.8137;;;;
2022/04/21 11:47:47;;;;;;;4.7;4;;;;;;;22.93;29.71387;926.7158;;;;
2022/04/21 11:50:18;;;;;;;5.1;4.3;;;;;;;23.22;28.52344;926.7483;;;;
2022/04/21 11:52:52;;;;;;;5.9;3.8;;;;;;;22.68;29.78027;926.7305;;;;
2022/04/21 11:55:16;;;;;;;5.1;4.1;;;;;;;22.48;30.92773;926.666;;;;
2022/04/21 11:57:40;;;;;;;6.7;4.5;;;;;;;21.58;30.92383;926.713;;;;
2022/04/21 12:00:17;;;;;;;5.4;4.2;;;;;;;21.08;32.59668;926.7381;;;;
2022/04/21 12:07:42;;;;;;;6.2;3.8;;;;;;;20.56;32.39551;926.59;;;;
2022/04/21 12:10:09;;;;;;;4.8;3.9;;;;;;;20.83;32.44922;926.5889;;;;
2022/04/21 12:12:32;;;;;;;5.1;3.8;;;;;;;21.69;31.02441;926.6054;;;;
2022/04/21 12:14:58;;;;;;;7.8;4;;;;;;;22.2;30.60352;926.6136;;;;
2022/04/21 12:17:26;;;;;;;4.9;3.8;;;;;;;21.67;30.2627;926.5611;;;;
2022/04/21 12:19:52;;;;;;;5.9;3.6;;;;;;;21.11;30.91504;926.6813;;;;
2022/04/21 12:22:20;;;;;;;5.2;3.9;;;;;;;21.37;31.14355;926.6772;;;;
2022/04/21 12:24:45;;;;;;;4;3.3;;;;;;;20.88;30.82813;926.4805;;;;
2022/04/21 12:27:13;;;;;;;5.1;3.4;;;;;;;20.81;30.77734;926.6275;;;;
2022/04/21 12:29:38;;;;;;;5.8;3.8;;;;;;;20.4;33.28223;926.5164;;;;
2022/04/21 12:32:09;;;;;;;4;3.4;;;;;;;20.71;31.99707;926.5427;;;;
2022/04/21 12:34:34;;;;;;;5.2;3.4;;;;;;;20.94;30.87891;926.5189;;;;
2022/04/21 12:36:59;;;;;;;5.3;3.8;;;;;;;20.68;32.11133;926.5466;;;;
2022/04/21 12:39:29;;;;;;;5.7;3.3;;;;;;;20.86;33.02441;926.475;;;;
2022/04/21 12:41:54;;;;;;;5.6;3.3;;;;;;;20.8;30.56543;926.4414;;;;
2022/04/21 12:44:22;;;;;;;4.5;3.5;;;;;;;20.48;31.23242;926.3884;;;;
2022/04/21 12:46:45;;;;;;;4.9;3.3;;;;;;;20.41;31.54297;926.3259;;;;
2022/04/21 12:49:13;;;;;;;4.8;3.7;;;;;;;19.35;33.56445;926.3472;;;;
2022/04/21 12:51:38;;;;;;;4.2;3.4;;;;;;;19.05;35.00879;926.416;;;;
2022/04/21 12:54:03;;;;;;;5.2;3.3;;;;;;;19.28;34.15332;926.4017;;;;
2022/04/21 12:56:29;;;;;;;4;3.6;;;;;;;18.86;35.38867;926.2659;;;;
2022/04/21 12:58:55;;;;;;;5.2;3.8;;;;;;;18.46;35.76367;926.3567;;;;
2022/04/21 13:01:20;;;;;;;4.1;3.7;;;;;;;18.15;37.50488;926.3057;;;;
2022/04/21 13:03:47;;;;;;;9.4;4.2;;;;;;;17.98;36.99023;926.3385;;;;
2022/04/21 13:06:13;;;;;;;5.8;3.7;;;;;;;17.78;39.28418;926.274;;;;
2022/04/21 13:08:41;;;;;;;6.4;4;;;;;;;18.01;37.0293;926.2759;;;;
2022/04/21 13:11:06;;;;;;;4.5;3.2;;;;;;;17.93;38.06641;926.28;;;;
2022/04/21 13:13:34;;;;;;;6.1;4.1;;;;;;;18.31;35.90234;926.2837;;;;
2022/04/21 13:15:59;;;;;;;5.3;4;;;;;;;18.49;37.28906;926.2234;;;;
2022/04/21 13:18:29;;;;;;;6.8;3.9;;;;;;;18.12;37.62988;926.2022;;;;
2022/04/21 13:23:17;;;;;;;5;4;;;;;;;17.69;37.74414;926.1422;;;;
2022/04/21 13:25:42;;;;;;;8.6;4.5;;;;;;;17.86;36.35449;926.181;;;;
2022/04/21 13:28:10;;;;;;;7.2;4;;;;;;;18.28;38.1084;926.1912;;;;
2022/04/21 13:30:38;;;;;;;6.1;4.1;;;;;;;18.17;37.35547;926.1806;;;;
2022/04/21 13:33:24;;;;;;;5.8;4.4;;;;;;;18.05;36.35742;926.2001;;;;
2022/04/21 13:35:31;;;;;;;5.2;3.7;;;;;;;18.19;35.77734;926.1911;;;;
2022/04/21 13:37:56;;;;;;;6;4.1;;;;;;;18.04;36.99609;926.0925;;;;
2022/04/21 13:40:25;;;;;;;5.9;4;;;;;;;18.03;35.93848;926.1547;;;;
2022/04/21 13:42:50;;;;;;;4.6;3.9;;;;;;;18.38;36.04785;926.1294;;;;
2022/04/21 13:45:20;;;;;;;4.9;3.9;;;;;;;18.64;35.25488;926.093;;;;
2022/04/21 13:47:45;;;;;;;5.2;3.9;;;;;;;18.65;34.84863;925.9933;;;;
2022/04/21 13:50:43;;;;;;;6.3;4.6;;;;;;;18.42;35.12207;926.0175;;;;
2022/04/21 13:53:10;;;;;;;6.2;4.3;;;;;;;18.32;35.20703;925.9559;;;;
2022/04/21 13:55:35;;;;;;;5.1;4;;;;;;;18.31;35.83301;925.9773;;;;
2022/04/21 13:58:03;;;;;;;5.1;3.6;;;;;;;18.27;36.33008;926.0095;;;;
2022/04/21 14:00:44;;;;;;;5.4;4.1;;;;;;;18.36;36.41797;925.9658;;;;
2022/04/21 14:03:09;;;;;;;5.7;4.3;;;;;;;18.28;35.7832;926.0045;;;;
2022/04/21 14:05:39;;;;;;;6.8;4.3;;;;;;;18.29;35.33203;926.011;;;;
2022/04/21 14:08:03;;;;;;;7.4;3.9;;;;;;;18.32;36.2168;925.9045;;;;
2022/04/21 14:10:33;;;;;;;5.2;3.8;;;;;;;18.44;35.7041;926.0402;;;;
2022/04/21 14:13:03;;;;;;;6.2;3.9;;;;;;;18.32;34.98633;926.0269;;;;
2022/04/21 14:15:29;;;;;;;4.2;3.8;;;;;;;18.31;35.70605;926.0553;;;;
2022/04/21 14:17:55;;;;;;;6.6;4.1;;;;;;;18.15;35.94727;926.0519;;;;
2022/04/21 14:20:23;;;;;;;5.3;4.1;;;;;;;17.94;36.66211;926.0073;;;;
2022/04/21 14:22:48;;;;;;;5.5;3.8;;;;;;;17.91;37.10156;925.9885;;;;
2022/04/21 14:25:17;;;;;;;5.1;3.9;;;;;;;18.05;36.14941;925.8879;;;;
2022/04/21 14:27:42;;;;;;;5.9;4.5;;;;;;;17.99;35.5166;925.8901;;;;
2022/04/21 14:30:14;;;;;;;5.6;3.9;;;;;;;18.03;36.50684;925.9655;;;;
2022/04/21 14:32:45;;;;;;;5.7;3.7;;;;;;;17.89;36.94824;925.9465;;;;
2022/04/21 14:35:16;;;;;;;4.6;4.1;;;;;;;17.94;37.69629;925.925;;;;
2022/04/21 14:45:13;;;;;;;5.2;4;;;;;;;17.73;38.00293;925.8378;;;;
2022/04/21 14:47:42;;;;;;;5.5;4.1;;;;;;;17.6;37.67871;925.8405;;;;
2022/04/21 14:50:07;;;;;;;5.2;4.4;;;;;;;17.64;37.27539;925.8812;;;;
2022/04/21 14:52:39;;;;;;;6.2;4.1;;;;;;;17.61;39.25781;925.9705;;;;
2022/04/21 14:55:14;;;;;;;5.9;4.4;;;;;;;17.67;37.68457;925.9631;;;;
2022/04/21 14:57:45;;;;;;;4.6;4.2;;;;;;;17.58;37.4209;925.8914;;;;
2022/04/21 15:00:16;;;;;;;5.5;4.4;;;;;;;17.65;37.31152;925.9356;;;;
2022/04/21 15:02:42;;;;;;;6.5;4.7;;;;;;;17.56;37.28027;925.9227;;;;
2022/04/21 15:05:18;;;;;;;5.2;3.9;;;;;;;17.63;36.83398;925.9244;;;;
2022/04/21 15:07:43;;;;;;;5.6;4.9;;;;;;;17.27;38.28809;925.933;;;;
2022/04/21 15:10:20;;;;;;;4.9;4.4;;;;;;;17.24;38.86426;925.9446;;;;
2022/04/21 15:12:52;;;;;;;4.6;4.2;;;;;;;17.15;38.9502;925.9146;;;;
2022/04/21 15:15:17;;;;;;;5.1;4.3;;;;;;;17.29;38.66016;925.8943;;;;
2022/04/21 15:17:50;;;;;;;6.7;4.6;;;;;;;17.09;38.35254;925.8748;;;;
2022/04/21 15:20:18;;;;;;;5.1;4.4;;;;;;;17.05;39.36914;925.8619;;;;
2022/04/21 15:22:49;;;;;;;6.3;4.8;;;;;;;16.76;39.98145;925.8526;;;;
2022/04/21 15:25:15;;;;;;;5.4;4.8;;;;;;;16.74;41.80859;925.8358;;;;
2022/04/21 15:27:46;;;;;;;6.2;4.4;;;;;;;16.91;39.75;925.8173;;;;
2022/04/21 15:30:15;;;;;;;6.5;4.8;;;;;;;16.95;39.62695;925.8208;;;;
2022/04/21 15:32:41;;;;;;;6;4.9;;;;;;;16.98;38.85352;925.847;;;;
2022/04/21 15:35:05;;;;;;;6.6;4.3;;;;;;;17.02;39.29688;925.8596;;;;
2022/04/21 15:37:35;;;;;;;6.4;4.6;;;;;;;17.05;39.65918;925.8136;;;;
2022/04/21 15:40:07;;;;;;;6.2;4.7;;;;;;;17.02;38.62598;925.8433;;;;
2022/04/21 15:42:38;;;;;;;6.5;4.7;;;;;;;16.97;39.49023;925.8755;;;;
2022/04/21 15:45:11;;;;;;;6.5;5.1;;;;;;;16.73;41.07813;925.8311;;;;
2022/04/21 15:47:40;;;;;;;6.4;5.2;;;;;;;16.51;40.65137;925.8438;;;;
2022/04/21 15:50:12;;;;;;;6.1;5.1;;;;;;;16.66;40.3877;925.8245;;;;